Whitfield, New York
Current Conditions -  °F | °C
As of 5:54 PM on Tuesday 27 Jan 2015 (Local Time) from KMGJ Reporting Station
Clear Clear  
Wind Chill:   Ceiling: Unl
Heat Index: 20°   Visibility: 10mi
Dew Point: 12°   Wind: 9mph
Humidity: 71%   Direction: 30°NNE
Pressure: 29.71"   Gusts: NA
Location:  41.8083°N, 74.2318°W
Report Text: KMGJ 272254Z AUTO 03008KT 10SM CLR M07/M11 A2971 RMK AO2 SLP065 T10671111 TSNO
Loading
Personal Weather Stations






























Interactive Weather Map New forecast layout! Learn more

10-Day Weather Forecast

Advertisements
Track Severe Weather on mobile